sensor_id;sensor_type;location;lat;lon;timestamp;P1;durP1;ratioP1;P2;durP2;ratioP2
151;SDS011;68;48.792;9.164;2023-09-19T00:00:40;21.60;;;7.27;;
151;SDS011;68;48.792;9.164;2023-09-19T00:03:07;23.00;;;7.00;;
151;SDS011;68;48.792;9.164;2023-09-19T00:05:36;21.40;;;8.13;;
151;SDS011;68;48.792;9.164;2023-09-19T00:08:04;23.33;;;9.27;;
151;SDS011;68;48.792;9.164;2023-09-19T00:10:33;20.60;;;6.43;;
151;SDS011;68;48.792;9.164;2023-09-19T00:13:00;22.23;;;7.70;;
151;SDS011;68;48.792;9.164;2023-09-19T00:15:30;22.60;;;8.10;;
151;SDS011;68;48.792;9.164;2023-09-19T00:18:02;20.20;;;6.90;;
151;SDS011;68;48.792;9.164;2023-09-19T00:20:31;22.20;;;8.20;;
151;SDS011;68;48.792;9.164;2023-09-19T00:23:01;23.13;;;8.40;;
151;SDS011;68;48.792;9.164;2023-09-19T00:25:33;21.90;;;7.00;;
151;SDS011;68;48.792;9.164;2023-09-19T00:28:02;21.23;;;7.13;;
151;SDS011;68;48.792;9.164;2023-09-19T00:30:28;23.20;;;8.07;;
151;SDS011;68;48.792;9.164;2023-09-19T00:32:56;23.37;;;8.03;;
151;SDS011;68;48.792;9.164;2023-09-19T00:35:23;23.30;;;7.30;;
151;SDS011;68;48.792;9.164;2023-09-19T00:37:50;21.70;;;7.50;;
151;SDS011;68;48.792;9.164;2023-09-19T00:40:18;20.50;;;7.13;;
151;SDS011;68;48.792;9.164;2023-09-19T00:42:46;20.87;;;7.00;;
151;SDS011;68;48.792;9.164;2023-09-19T00:45:14;20.50;;;7.23;;
151;SDS011;68;48.792;9.164;2023-09-19T00:47:43;24.13;;;7.40;;
151;SDS011;68;48.792;9.164;2023-09-19T00:50:14;22.70;;;8.47;;
151;SDS011;68;48.792;9.164;2023-09-19T00:52:42;20.27;;;7.00;;
151;SDS011;68;48.792;9.164;2023-09-19T00:55:10;21.73;;;7.60;;
151;SDS011;68;48.792;9.164;2023-09-19T00:57:39;22.10;;;8.50;;
151;SDS011;68;48.792;9.164;2023-09-19T01:00:07;22.23;;;7.77;;
151;SDS011;68;48.792;9.164;2023-09-19T01:02:40;21.90;;;8.07;;
151;SDS011;68;48.792;9.164;2023-09-19T01:05:07;21.30;;;7.57;;
151;SDS011;68;48.792;9.164;2023-09-19T01:07:35;28.00;;;9.07;;
151;SDS011;68;48.792;9.164;2023-09-19T01:10:05;21.83;;;7.43;;
151;SDS011;68;48.792;9.164;2023-09-19T01:12:41;21.77;;;7.53;;
151;SDS011;68;48.792;9.164;2023-09-19T01:15:21;20.63;;;8.07;;
151;SDS011;68;48.792;9.164;2023-09-19T01:17:57;23.83;;;8.60;;
151;SDS011;68;48.792;9.164;2023-09-19T01:20:28;21.20;;;7.87;;
151;SDS011;68;48.792;9.164;2023-09-19T01:23:06;21.70;;;7.43;;
151;SDS011;68;48.792;9.164;2023-09-19T01:28:37;22.43;;;7.80;;
151;SDS011;68;48.792;9.164;2023-09-19T01:31:13;21.10;;;7.60;;
151;SDS011;68;48.792;9.164;2023-09-19T01:33:53;21.33;;;7.90;;
151;SDS011;68;48.792;9.164;2023-09-19T01:36:24;21.20;;;7.77;;
151;SDS011;68;48.792;9.164;2023-09-19T01:38:52;22.67;;;7.03;;
151;SDS011;68;48.792;9.164;2023-09-19T01:41:21;22.13;;;7.13;;
151;SDS011;68;48.792;9.164;2023-09-19T01:43:52;24.50;;;9.30;;
151;SDS011;68;48.792;9.164;2023-09-19T01:46:21;21.43;;;7.63;;
151;SDS011;68;48.792;9.164;2023-09-19T01:48:54;21.00;;;7.40;;
151;SDS011;68;48.792;9.164;2023-09-19T01:51:32;21.77;;;6.77;;
151;SDS011;68;48.792;9.164;2023-09-19T01:54:03;21.40;;;8.30;;
151;SDS011;68;48.792;9.164;2023-09-19T01:56:37;21.10;;;6.60;;
151;SDS011;68;48.792;9.164;2023-09-19T01:59:11;22.80;;;7.43;;
151;SDS011;68;48.792;9.164;2023-09-19T02:01:44;20.80;;;8.10;;
151;SDS011;68;48.792;9.164;2023-09-19T02:04:11;20.87;;;7.27;;
151;SDS011;68;48.792;9.164;2023-09-19T02:06:39;21.33;;;7.80;;
151;SDS011;68;48.792;9.164;2023-09-19T02:09:07;21.90;;;7.87;;
151;SDS011;68;48.792;9.164;2023-09-19T02:11:33;20.77;;;7.33;;
151;SDS011;68;48.792;9.164;2023-09-19T02:14:01;21.70;;;7.30;;
151;SDS011;68;48.792;9.164;2023-09-19T02:16:29;22.30;;;8.50;;
151;SDS011;68;48.792;9.164;2023-09-19T02:18:57;23.17;;;8.23;;
151;SDS011;68;48.792;9.164;2023-09-19T02:21:25;21.80;;;7.90;;
151;SDS011;68;48.792;9.164;2023-09-19T02:23:54;22.30;;;8.90;;
151;SDS011;68;48.792;9.164;2023-09-19T02:26:21;21.20;;;7.97;;
151;SDS011;68;48.792;9.164;2023-09-19T02:28:49;20.87;;;7.00;;
151;SDS011;68;48.792;9.164;2023-09-19T02:31:16;22.63;;;7.73;;
151;SDS011;68;48.792;9.164;2023-09-19T02:33:43;22.60;;;7.47;;
151;SDS011;68;48.792;9.164;2023-09-19T02:36:12;21.80;;;8.10;;
151;SDS011;68;48.792;9.164;2023-09-19T02:38:42;21.23;;;8.00;;
151;SDS011;68;48.792;9.164;2023-09-19T02:41:09;21.50;;;8.17;;
151;SDS011;68;48.792;9.164;2023-09-19T02:43:35;21.87;;;8.70;;
151;SDS011;68;48.792;9.164;2023-09-19T02:46:02;23.30;;;7.60;;
151;SDS011;68;48.792;9.164;2023-09-19T02:48:29;22.30;;;8.13;;
151;SDS011;68;48.792;9.164;2023-09-19T02:50:57;21.23;;;8.50;;
151;SDS011;68;48.792;9.164;2023-09-19T02:53:25;21.67;;;8.27;;
151;SDS011;68;48.792;9.164;2023-09-19T02:55:52;25.53;;;7.90;;
151;SDS011;68;48.792;9.164;2023-09-19T02:58:19;21.47;;;7.80;;
151;SDS011;68;48.792;9.164;2023-09-19T03:00:48;20.70;;;8.30;;
151;SDS011;68;48.792;9.164;2023-09-19T03:03:16;21.07;;;8.10;;
151;SDS011;68;48.792;9.164;2023-09-19T03:05:44;20.70;;;7.70;;
151;SDS011;68;48.792;9.164;2023-09-19T03:08:12;24.67;;;7.87;;
151;SDS011;68;48.792;9.164;2023-09-19T03:10:41;22.20;;;7.93;;
151;SDS011;68;48.792;9.164;2023-09-19T03:13:08;21.20;;;7.30;;
151;SDS011;68;48.792;9.164;2023-09-19T03:15:36;22.00;;;8.27;;
151;SDS011;68;48.792;9.164;2023-09-19T03:18:03;21.57;;;7.10;;
151;SDS011;68;48.792;9.164;2023-09-19T03:20:31;22.63;;;7.80;;
151;SDS011;68;48.792;9.164;2023-09-19T03:22:57;21.40;;;7.20;;
151;SDS011;68;48.792;9.164;2023-09-19T03:25:25;21.97;;;8.20;;
151;SDS011;68;48.792;9.164;2023-09-19T03:27:55;21.70;;;7.90;;
151;SDS011;68;48.792;9.164;2023-09-19T03:30:23;21.20;;;7.77;;
151;SDS011;68;48.792;9.164;2023-09-19T03:32:51;21.10;;;7.40;;
151;SDS011;68;48.792;9.164;2023-09-19T03:35:18;20.17;;;7.67;;
151;SDS011;68;48.792;9.164;2023-09-19T03:37:45;21.57;;;7.10;;
151;SDS011;68;48.792;9.164;2023-09-19T03:40:12;20.97;;;7.47;;
151;SDS011;68;48.792;9.164;2023-09-19T03:42:39;22.60;;;7.50;;
151;SDS011;68;48.792;9.164;2023-09-19T03:45:08;21.23;;;7.73;;
151;SDS011;68;48.792;9.164;2023-09-19T03:47:37;21.77;;;7.90;;
151;SDS011;68;48.792;9.164;2023-09-19T03:50:04;21.50;;;7.47;;
151;SDS011;68;48.792;9.164;2023-09-19T03:52:32;23.30;;;7.90;;
151;SDS011;68;48.792;9.164;2023-09-19T03:54:58;24.57;;;8.50;;
151;SDS011;68;48.792;9.164;2023-09-19T03:57:25;21.00;;;8.10;;
151;SDS011;68;48.792;9.164;2023-09-19T03:59:52;21.90;;;8.27;;
151;SDS011;68;48.792;9.164;2023-09-19T04:02:20;23.47;;;8.87;;
151;SDS011;68;48.792;9.164;2023-09-19T04:04:48;24.10;;;7.97;;
151;SDS011;68;48.792;9.164;2023-09-19T04:07:15;21.00;;;7.57;;
151;SDS011;68;48.792;9.164;2023-09-19T04:09:42;21.73;;;7.73;;
151;SDS011;68;48.792;9.164;2023-09-19T04:12:09;23.10;;;8.27;;
151;SDS011;68;48.792;9.164;2023-09-19T04:14:36;21.33;;;7.60;;
151;SDS011;68;48.792;9.164;2023-09-19T04:17:03;25.17;;;8.50;;
151;SDS011;68;48.792;9.164;2023-09-19T04:19:31;20.47;;;7.10;;
151;SDS011;68;48.792;9.164;2023-09-19T04:21:58;21.40;;;7.17;;
151;SDS011;68;48.792;9.164;2023-09-19T04:24:25;22.80;;;8.17;;
151;SDS011;68;48.792;9.164;2023-09-19T04:26:52;22.00;;;9.33;;
151;SDS011;68;48.792;9.164;2023-09-19T04:29:19;21.20;;;7.50;;
151;SDS011;68;48.792;9.164;2023-09-19T04:31:46;22.10;;;8.77;;
151;SDS011;68;48.792;9.164;2023-09-19T04:34:12;22.70;;;8.23;;
151;SDS011;68;48.792;9.164;2023-09-19T04:36:42;23.33;;;8.00;;
151;SDS011;68;48.792;9.164;2023-09-19T04:39:10;27.57;;;9.40;;
151;SDS011;68;48.792;9.164;2023-09-19T04:41:37;23.00;;;9.00;;
151;SDS011;68;48.792;9.164;2023-09-19T04:44:05;21.70;;;7.87;;
151;SDS011;68;48.792;9.164;2023-09-19T04:46:33;20.50;;;7.80;;
151;SDS011;68;48.792;9.164;2023-09-19T04:49:00;22.63;;;8.27;;
151;SDS011;68;48.792;9.164;2023-09-19T04:51:27;26.13;;;7.87;;
151;SDS011;68;48.792;9.164;2023-09-19T04:54:00;24.47;;;9.10;;
151;SDS011;68;48.792;9.164;2023-09-19T04:56:27;21.30;;;8.50;;
151;SDS011;68;48.792;9.164;2023-09-19T04:58:55;22.87;;;9.07;;
151;SDS011;68;48.792;9.164;2023-09-19T05:01:23;21.67;;;8.00;;
151;SDS011;68;48.792;9.164;2023-09-19T05:03:50;21.17;;;8.47;;
151;SDS011;68;48.792;9.164;2023-09-19T05:06:18;22.77;;;8.40;;
151;SDS011;68;48.792;9.164;2023-09-19T05:08:46;24.63;;;10.00;;
151;SDS011;68;48.792;9.164;2023-09-19T05:11:17;24.80;;;9.57;;
151;SDS011;68;48.792;9.164;2023-09-19T05:13:44;24.77;;;9.70;;
151;SDS011;68;48.792;9.164;2023-09-19T05:16:11;24.43;;;10.37;;
151;SDS011;68;48.792;9.164;2023-09-19T05:18:38;22.13;;;8.40;;
151;SDS011;68;48.792;9.164;2023-09-19T05:21:04;22.73;;;9.40;;
151;SDS011;68;48.792;9.164;2023-09-19T05:23:32;24.90;;;10.37;;
151;SDS011;68;48.792;9.164;2023-09-19T05:25:59;23.03;;;9.53;;
151;SDS011;68;48.792;9.164;2023-09-19T05:28:28;23.77;;;8.27;;
151;SDS011;68;48.792;9.164;2023-09-19T05:30:55;22.07;;;8.40;;
151;SDS011;68;48.792;9.164;2023-09-19T05:33:22;30.40;;;8.57;;
151;SDS011;68;48.792;9.164;2023-09-19T05:35:49;22.50;;;8.70;;
151;SDS011;68;48.792;9.164;2023-09-19T05:38:16;23.07;;;8.67;;
151;SDS011;68;48.792;9.164;2023-09-19T05:40:44;22.60;;;8.37;;
151;SDS011;68;48.792;9.164;2023-09-19T05:43:11;22.87;;;8.73;;
151;SDS011;68;48.792;9.164;2023-09-19T05:45:40;23.10;;;8.53;;
151;SDS011;68;48.792;9.164;2023-09-19T05:48:08;23.00;;;9.13;;
151;SDS011;68;48.792;9.164;2023-09-19T05:50:36;21.63;;;10.07;;
151;SDS011;68;48.792;9.164;2023-09-19T05:53:03;25.70;;;10.33;;
151;SDS011;68;48.792;9.164;2023-09-19T05:55:30;23.73;;;8.40;;
151;SDS011;68;48.792;9.164;2023-09-19T05:57:57;26.53;;;9.20;;
151;SDS011;68;48.792;9.164;2023-09-19T06:00:24;23.60;;;8.20;;
151;SDS011;68;48.792;9.164;2023-09-19T06:02:54;23.80;;;8.67;;
151;SDS011;68;48.792;9.164;2023-09-19T06:05:22;25.00;;;10.40;;
151;SDS011;68;48.792;9.164;2023-09-19T06:07:49;24.47;;;9.70;;
151;SDS011;68;48.792;9.164;2023-09-19T06:10:17;27.13;;;9.87;;
151;SDS011;68;48.792;9.164;2023-09-19T06:12:45;24.10;;;10.30;;
151;SDS011;68;48.792;9.164;2023-09-19T06:15:14;27.50;;;10.50;;
151;SDS011;68;48.792;9.164;2023-09-19T06:17:46;24.70;;;9.90;;
151;SDS011;68;48.792;9.164;2023-09-19T06:20:14;25.60;;;10.63;;
151;SDS011;68;48.792;9.164;2023-09-19T06:22:43;23.23;;;9.70;;
151;SDS011;68;48.792;9.164;2023-09-19T06:25:11;24.40;;;10.30;;
151;SDS011;68;48.792;9.164;2023-09-19T06:27:41;23.70;;;9.87;;
151;SDS011;68;48.792;9.164;2023-09-19T06:30:09;23.13;;;10.50;;
151;SDS011;68;48.792;9.164;2023-09-19T06:32:38;24.92;;;9.55;;
151;SDS011;68;48.792;9.164;2023-09-19T06:35:05;24.87;;;10.17;;
151;SDS011;68;48.792;9.164;2023-09-19T06:37:36;24.00;;;9.20;;
151;SDS011;68;48.792;9.164;2023-09-19T06:40:05;23.87;;;10.37;;
151;SDS011;68;48.792;9.164;2023-09-19T06:42:38;24.10;;;9.90;;
151;SDS011;68;48.792;9.164;2023-09-19T06:45:06;23.63;;;10.40;;
151;SDS011;68;48.792;9.164;2023-09-19T06:47:33;23.87;;;9.00;;
151;SDS011;68;48.792;9.164;2023-09-19T06:50:01;26.80;;;9.70;;
151;SDS011;68;48.792;9.164;2023-09-19T06:52:30;24.27;;;9.30;;
151;SDS011;68;48.792;9.164;2023-09-19T06:54:59;23.50;;;10.57;;
151;SDS011;68;48.792;9.164;2023-09-19T06:57:28;25.73;;;9.80;;
151;SDS011;68;48.792;9.164;2023-09-19T06:59:55;23.93;;;9.30;;
151;SDS011;68;48.792;9.164;2023-09-19T07:02:22;26.77;;;9.40;;
151;SDS011;68;48.792;9.164;2023-09-19T07:04:49;28.40;;;10.20;;
151;SDS011;68;48.792;9.164;2023-09-19T07:07:16;23.63;;;8.87;;
151;SDS011;68;48.792;9.164;2023-09-19T07:09:46;23.77;;;9.30;;
151;SDS011;68;48.792;9.164;2023-09-19T07:12:15;25.80;;;9.97;;
151;SDS011;68;48.792;9.164;2023-09-19T07:14:42;26.60;;;10.00;;
151;SDS011;68;48.792;9.164;2023-09-19T07:17:11;24.90;;;9.57;;
151;SDS011;68;48.792;9.164;2023-09-19T07:19:43;24.63;;;9.90;;
151;SDS011;68;48.792;9.164;2023-09-19T07:22:13;28.47;;;10.00;;
151;SDS011;68;48.792;9.164;2023-09-19T07:24:40;23.90;;;10.07;;
151;SDS011;68;48.792;9.164;2023-09-19T07:27:07;25.33;;;8.70;;
151;SDS011;68;48.792;9.164;2023-09-19T07:29:36;27.27;;;10.80;;
151;SDS011;68;48.792;9.164;2023-09-19T07:32:03;27.13;;;9.63;;
151;SDS011;68;48.792;9.164;2023-09-19T07:34:31;23.50;;;8.77;;
151;SDS011;68;48.792;9.164;2023-09-19T07:36:57;22.63;;;9.00;;
151;SDS011;68;48.792;9.164;2023-09-19T07:39:24;24.27;;;9.40;;
151;SDS011;68;48.792;9.164;2023-09-19T07:41:51;25.80;;;8.47;;
151;SDS011;68;48.792;9.164;2023-09-19T07:44:19;22.77;;;9.03;;
151;SDS011;68;48.792;9.164;2023-09-19T07:46:47;24.10;;;9.47;;
151;SDS011;68;48.792;9.164;2023-09-19T07:49:16;22.70;;;8.93;;
151;SDS011;68;48.792;9.164;2023-09-19T07:51:44;24.03;;;8.97;;
151;SDS011;68;48.792;9.164;2023-09-19T07:54:12;24.17;;;9.07;;
151;SDS011;68;48.792;9.164;2023-09-19T07:56:39;25.33;;;9.30;;
151;SDS011;68;48.792;9.164;2023-09-19T07:59:06;25.27;;;8.53;;
151;SDS011;68;48.792;9.164;2023-09-19T08:01:33;24.47;;;8.57;;
151;SDS011;68;48.792;9.164;2023-09-19T08:04:02;24.90;;;8.30;;
151;SDS011;68;48.792;9.164;2023-09-19T08:06:29;23.60;;;8.73;;
151;SDS011;68;48.792;9.164;2023-09-19T08:08:56;27.87;;;10.67;;
151;SDS011;68;48.792;9.164;2023-09-19T08:11:23;24.00;;;8.30;;
151;SDS011;68;48.792;9.164;2023-09-19T08:13:50;25.80;;;9.37;;
151;SDS011;68;48.792;9.164;2023-09-19T08:16:17;24.40;;;8.37;;
151;SDS011;68;48.792;9.164;2023-09-19T08:18:46;23.00;;;8.90;;
151;SDS011;68;48.792;9.164;2023-09-19T08:21:14;25.70;;;8.33;;
151;SDS011;68;48.792;9.164;2023-09-19T08:23:41;25.03;;;9.20;;
151;SDS011;68;48.792;9.164;2023-09-19T08:26:08;25.53;;;9.27;;
151;SDS011;68;48.792;9.164;2023-09-19T08:28:35;24.53;;;9.30;;
151;SDS011;68;48.792;9.164;2023-09-19T08:31:02;25.77;;;8.90;;
151;SDS011;68;48.792;9.164;2023-09-19T08:33:31;25.67;;;8.33;;
151;SDS011;68;48.792;9.164;2023-09-19T08:35:58;24.00;;;8.67;;
151;SDS011;68;48.792;9.164;2023-09-19T08:38:26;22.47;;;9.33;;
151;SDS011;68;48.792;9.164;2023-09-19T08:40:56;22.50;;;8.90;;
151;SDS011;68;48.792;9.164;2023-09-19T08:43:24;23.00;;;8.37;;
151;SDS011;68;48.792;9.164;2023-09-19T08:45:51;21.97;;;8.13;;
151;SDS011;68;48.792;9.164;2023-09-19T08:48:23;24.97;;;9.47;;
151;SDS011;68;48.792;9.164;2023-09-19T08:50:55;21.43;;;8.40;;
151;SDS011;68;48.792;9.164;2023-09-19T08:53:30;24.70;;;8.20;;
151;SDS011;68;48.792;9.164;2023-09-19T08:56:03;21.70;;;8.20;;
151;SDS011;68;48.792;9.164;2023-09-19T08:58:44;25.70;;;8.43;;
151;SDS011;68;48.792;9.164;2023-09-19T09:01:13;22.80;;;7.80;;
151;SDS011;68;48.792;9.164;2023-09-19T09:03:42;21.70;;;8.10;;
151;SDS011;68;48.792;9.164;2023-09-19T09:06:12;21.97;;;7.27;;
151;SDS011;68;48.792;9.164;2023-09-19T09:08:42;21.87;;;6.90;;
151;SDS011;68;48.792;9.164;2023-09-19T09:11:10;21.87;;;7.83;;
151;SDS011;68;48.792;9.164;2023-09-19T09:13:37;21.87;;;7.47;;
151;SDS011;68;48.792;9.164;2023-09-19T09:16:06;21.60;;;7.30;;
151;SDS011;68;48.792;9.164;2023-09-19T09:18:33;23.10;;;8.23;;
151;SDS011;68;48.792;9.164;2023-09-19T09:21:00;21.07;;;6.67;;
151;SDS011;68;48.792;9.164;2023-09-19T09:23:29;21.90;;;6.53;;
151;SDS011;68;48.792;9.164;2023-09-19T09:25:58;21.93;;;8.47;;
151;SDS011;68;48.792;9.164;2023-09-19T09:28:28;24.00;;;8.00;;
151;SDS011;68;48.792;9.164;2023-09-19T09:30:58;22.80;;;7.60;;
151;SDS011;68;48.792;9.164;2023-09-19T09:33:26;25.10;;;7.67;;
151;SDS011;68;48.792;9.164;2023-09-19T09:35:54;22.20;;;6.90;;
151;SDS011;68;48.792;9.164;2023-09-19T09:38:23;26.27;;;7.70;;
151;SDS011;68;48.792;9.164;2023-09-19T09:40:52;24.87;;;8.00;;
151;SDS011;68;48.792;9.164;2023-09-19T09:43:27;24.70;;;9.30;;
151;SDS011;68;48.792;9.164;2023-09-19T09:46:11;21.77;;;6.60;;
151;SDS011;68;48.792;9.164;2023-09-19T09:48:59;22.63;;;7.03;;
151;SDS011;68;48.792;9.164;2023-09-19T09:51:51;24.40;;;8.07;;
151;SDS011;68;48.792;9.164;2023-09-19T09:54:26;24.80;;;7.80;;
151;SDS011;68;48.792;9.164;2023-09-19T09:57:00;23.57;;;7.10;;
151;SDS011;68;48.792;9.164;2023-09-19T09:59:49;27.40;;;8.17;;
151;SDS011;68;48.792;9.164;2023-09-19T10:02:18;25.00;;;7.13;;
151;SDS011;68;48.792;9.164;2023-09-19T10:04:50;23.50;;;8.33;;
151;SDS011;68;48.792;9.164;2023-09-19T10:07:27;26.97;;;9.77;;
151;SDS011;68;48.792;9.164;2023-09-19T10:09:58;27.10;;;8.30;;
151;SDS011;68;48.792;9.164;2023-09-19T10:12:36;25.33;;;8.40;;
151;SDS011;68;48.792;9.164;2023-09-19T10:15:09;27.90;;;7.73;;
151;SDS011;68;48.792;9.164;2023-09-19T10:17:42;24.57;;;8.03;;
151;SDS011;68;48.792;9.164;2023-09-19T10:20:12;25.07;;;9.20;;
151;SDS011;68;48.792;9.164;2023-09-19T10:23:04;23.93;;;7.93;;
151;SDS011;68;48.792;9.164;2023-09-19T10:25:36;23.63;;;8.37;;
151;SDS011;68;48.792;9.164;2023-09-19T10:28:05;22.97;;;7.20;;
151;SDS011;68;48.792;9.164;2023-09-19T10:30:38;23.03;;;7.57;;
151;SDS011;68;48.792;9.164;2023-09-19T10:33:10;24.50;;;8.87;;
151;SDS011;68;48.792;9.164;2023-09-19T10:35:38;24.10;;;7.80;;
151;SDS011;68;48.792;9.164;2023-09-19T10:38:09;24.50;;;7.43;;
151;SDS011;68;48.792;9.164;2023-09-19T10:40:38;23.70;;;7.17;;
151;SDS011;68;48.792;9.164;2023-09-19T10:43:11;23.60;;;8.17;;
151;SDS011;68;48.792;9.164;2023-09-19T10:45:41;25.37;;;7.90;;
151;SDS011;68;48.792;9.164;2023-09-19T10:48:11;25.37;;;8.13;;
151;SDS011;68;48.792;9.164;2023-09-19T10:50:41;24.80;;;7.07;;
151;SDS011;68;48.792;9.164;2023-09-19T10:53:12;23.80;;;7.87;;
151;SDS011;68;48.792;9.164;2023-09-19T10:55:40;26.57;;;8.03;;
151;SDS011;68;48.792;9.164;2023-09-19T10:58:13;25.10;;;8.00;;
151;SDS011;68;48.792;9.164;2023-09-19T11:00:56;26.07;;;7.63;;
151;SDS011;68;48.792;9.164;2023-09-19T11:03:30;25.47;;;7.47;;
151;SDS011;68;48.792;9.164;2023-09-19T11:06:08;24.40;;;7.40;;
151;SDS011;68;48.792;9.164;2023-09-19T11:08:51;24.57;;;7.20;;
151;SDS011;68;48.792;9.164;2023-09-19T11:20:19;26.73;;;6.00;;
151;SDS011;68;48.792;9.164;2023-09-19T11:25:48;24.47;;;5.93;;
151;SDS011;68;48.792;9.164;2023-09-19T11:28:29;23.17;;;5.37;;
151;SDS011;68;48.792;9.164;2023-09-19T11:30:57;24.70;;;6.10;;
151;SDS011;68;48.792;9.164;2023-09-19T11:33:26;27.80;;;7.23;;
151;SDS011;68;48.792;9.164;2023-09-19T11:36:02;25.80;;;6.83;;
151;SDS011;68;48.792;9.164;2023-09-19T11:41:37;28.70;;;7.47;;
151;SDS011;68;48.792;9.164;2023-09-19T11:47:03;25.90;;;7.00;;
151;SDS011;68;48.792;9.164;2023-09-19T11:49:33;28.07;;;8.47;;
151;SDS011;68;48.792;9.164;2023-09-19T11:52:02;27.30;;;8.10;;
151;SDS011;68;48.792;9.164;2023-09-19T11:54:33;27.07;;;7.87;;
151;SDS011;68;48.792;9.164;2023-09-19T11:57:05;28.10;;;10.07;;
151;SDS011;68;48.792;9.164;2023-09-19T11:59:33;27.23;;;9.00;;
151;SDS011;68;48.792;9.164;2023-09-19T12:02:05;28.40;;;9.67;;
151;SDS011;68;48.792;9.164;2023-09-19T12:04:35;30.27;;;10.27;;
151;SDS011;68;48.792;9.164;2023-09-19T12:07:03;30.80;;;10.37;;
151;SDS011;68;48.792;9.164;2023-09-19T12:09:35;36.13;;;9.30;;
151;SDS011;68;48.792;9.164;2023-09-19T12:12:05;28.93;;;11.20;;
151;SDS011;68;48.792;9.164;2023-09-19T12:14:32;27.00;;;9.20;;
151;SDS011;68;48.792;9.164;2023-09-19T12:17:00;30.27;;;11.30;;
151;SDS011;68;48.792;9.164;2023-09-19T12:19:28;28.60;;;10.00;;
151;SDS011;68;48.792;9.164;2023-09-19T12:22:00;28.77;;;11.20;;
151;SDS011;68;48.792;9.164;2023-09-19T12:24:29;33.30;;;11.77;;
151;SDS011;68;48.792;9.164;2023-09-19T12:27:00;32.90;;;12.40;;
151;SDS011;68;48.792;9.164;2023-09-19T12:29:30;30.73;;;12.10;;
151;SDS011;68;48.792;9.164;2023-09-19T12:32:01;31.10;;;10.90;;
151;SDS011;68;48.792;9.164;2023-09-19T12:34:30;30.80;;;11.07;;
151;SDS011;68;48.792;9.164;2023-09-19T12:37:07;30.57;;;11.13;;
151;SDS011;68;48.792;9.164;2023-09-19T12:39:40;30.43;;;10.47;;
151;SDS011;68;48.792;9.164;2023-09-19T12:42:12;31.50;;;10.87;;
151;SDS011;68;48.792;9.164;2023-09-19T12:44:40;29.17;;;10.37;;
151;SDS011;68;48.792;9.164;2023-09-19T12:47:10;29.60;;;10.60;;
151;SDS011;68;48.792;9.164;2023-09-19T12:52:39;29.13;;;11.90;;
151;SDS011;68;48.792;9.164;2023-09-19T12:55:18;33.33;;;11.10;;
151;SDS011;68;48.792;9.164;2023-09-19T12:57:54;28.13;;;9.97;;
151;SDS011;68;48.792;9.164;2023-09-19T13:00:30;28.80;;;10.30;;
151;SDS011;68;48.792;9.164;2023-09-19T13:03:09;28.10;;;9.10;;
151;SDS011;68;48.792;9.164;2023-09-19T13:05:46;27.80;;;9.80;;
151;SDS011;68;48.792;9.164;2023-09-19T13:08:19;28.83;;;10.70;;
151;SDS011;68;48.792;9.164;2023-09-19T13:11:00;30.20;;;10.07;;
151;SDS011;68;48.792;9.164;2023-09-19T13:13:29;26.87;;;9.00;;
151;SDS011;68;48.792;9.164;2023-09-19T13:15:55;29.90;;;9.97;;
151;SDS011;68;48.792;9.164;2023-09-19T13:18:23;30.00;;;9.60;;
151;SDS011;68;48.792;9.164;2023-09-19T13:21:05;29.37;;;9.07;;
151;SDS011;68;48.792;9.164;2023-09-19T13:23:35;27.87;;;8.40;;
151;SDS011;68;48.792;9.164;2023-09-19T13:26:02;27.50;;;9.33;;
151;SDS011;68;48.792;9.164;2023-09-19T13:28:30;28.90;;;10.07;;
151;SDS011;68;48.792;9.164;2023-09-19T13:30:57;27.50;;;8.17;;
151;SDS011;68;48.792;9.164;2023-09-19T13:33:24;28.00;;;10.47;;
151;SDS011;68;48.792;9.164;2023-09-19T13:35:51;28.40;;;8.37;;
151;SDS011;68;48.792;9.164;2023-09-19T13:38:18;28.47;;;9.27;;
151;SDS011;68;48.792;9.164;2023-09-19T13:40:48;29.20;;;9.00;;
151;SDS011;68;48.792;9.164;2023-09-19T13:43:17;28.87;;;9.33;;
151;SDS011;68;48.792;9.164;2023-09-19T13:45:45;29.93;;;9.87;;
151;SDS011;68;48.792;9.164;2023-09-19T13:48:12;29.20;;;9.87;;
151;SDS011;68;48.792;9.164;2023-09-19T13:50:38;28.17;;;9.17;;
151;SDS011;68;48.792;9.164;2023-09-19T13:53:07;28.10;;;9.17;;
151;SDS011;68;48.792;9.164;2023-09-19T13:55:34;28.00;;;8.17;;
151;SDS011;68;48.792;9.164;2023-09-19T13:58:04;26.97;;;9.23;;
151;SDS011;68;48.792;9.164;2023-09-19T14:00:31;28.10;;;8.40;;
151;SDS011;68;48.792;9.164;2023-09-19T14:02:59;29.50;;;9.07;;
151;SDS011;68;48.792;9.164;2023-09-19T14:05:26;27.00;;;7.70;;
151;SDS011;68;48.792;9.164;2023-09-19T14:07:55;27.00;;;8.87;;
151;SDS011;68;48.792;9.164;2023-09-19T14:10:22;29.77;;;7.87;;
151;SDS011;68;48.792;9.164;2023-09-19T14:12:50;29.07;;;8.63;;
151;SDS011;68;48.792;9.164;2023-09-19T14:15:18;26.37;;;8.33;;
151;SDS011;68;48.792;9.164;2023-09-19T14:17:45;26.17;;;7.57;;
151;SDS011;68;48.792;9.164;2023-09-19T14:20:12;26.33;;;8.53;;
151;SDS011;68;48.792;9.164;2023-09-19T14:22:40;28.30;;;9.50;;
151;SDS011;68;48.792;9.164;2023-09-19T14:25:07;27.70;;;8.97;;
151;SDS011;68;48.792;9.164;2023-09-19T14:27:34;26.47;;;7.97;;
151;SDS011;68;48.792;9.164;2023-09-19T14:30:01;30.37;;;8.17;;
151;SDS011;68;48.792;9.164;2023-09-19T14:32:30;26.97;;;8.33;;
151;SDS011;68;48.792;9.164;2023-09-19T14:34:57;28.17;;;8.00;;
151;SDS011;68;48.792;9.164;2023-09-19T14:37:24;26.20;;;8.33;;
151;SDS011;68;48.792;9.164;2023-09-19T14:39:53;30.10;;;8.43;;
151;SDS011;68;48.792;9.164;2023-09-19T14:42:19;26.87;;;8.57;;
151;SDS011;68;48.792;9.164;2023-09-19T14:44:46;27.77;;;7.90;;
151;SDS011;68;48.792;9.164;2023-09-19T14:47:13;27.30;;;8.33;;
151;SDS011;68;48.792;9.164;2023-09-19T14:49:43;26.57;;;8.30;;
151;SDS011;68;48.792;9.164;2023-09-19T14:52:11;28.67;;;8.50;;
151;SDS011;68;48.792;9.164;2023-09-19T14:54:40;26.20;;;8.00;;
151;SDS011;68;48.792;9.164;2023-09-19T14:57:07;27.10;;;8.37;;
151;SDS011;68;48.792;9.164;2023-09-19T14:59:35;26.67;;;7.83;;
151;SDS011;68;48.792;9.164;2023-09-19T15:02:03;27.37;;;7.60;;
151;SDS011;68;48.792;9.164;2023-09-19T15:04:29;26.70;;;8.77;;
151;SDS011;68;48.792;9.164;2023-09-19T15:06:58;27.57;;;8.87;;
151;SDS011;68;48.792;9.164;2023-09-19T15:09:25;27.10;;;7.97;;
151;SDS011;68;48.792;9.164;2023-09-19T15:11:52;29.73;;;8.13;;
151;SDS011;68;48.792;9.164;2023-09-19T15:14:18;27.80;;;8.60;;
151;SDS011;68;48.792;9.164;2023-09-19T15:16:46;27.70;;;8.67;;
151;SDS011;68;48.792;9.164;2023-09-19T15:19:13;27.30;;;9.07;;
151;SDS011;68;48.792;9.164;2023-09-19T15:21:40;28.67;;;10.37;;
151;SDS011;68;48.792;9.164;2023-09-19T15:24:08;27.13;;;8.50;;
151;SDS011;68;48.792;9.164;2023-09-19T15:26:35;29.87;;;9.03;;
151;SDS011;68;48.792;9.164;2023-09-19T15:29:04;27.73;;;8.83;;
151;SDS011;68;48.792;9.164;2023-09-19T15:31:31;25.90;;;8.57;;
151;SDS011;68;48.792;9.164;2023-09-19T15:33:58;26.30;;;8.17;;
151;SDS011;68;48.792;9.164;2023-09-19T15:36:25;26.70;;;8.97;;
151;SDS011;68;48.792;9.164;2023-09-19T15:38:56;27.63;;;8.37;;
151;SDS011;68;48.792;9.164;2023-09-19T15:41:26;27.87;;;8.87;;
151;SDS011;68;48.792;9.164;2023-09-19T15:43:55;25.73;;;8.57;;
151;SDS011;68;48.792;9.164;2023-09-19T15:46:24;27.10;;;9.33;;
151;SDS011;68;48.792;9.164;2023-09-19T15:48:51;28.07;;;8.80;;
151;SDS011;68;48.792;9.164;2023-09-19T15:51:18;25.70;;;8.30;;
151;SDS011;68;48.792;9.164;2023-09-19T15:53:46;28.93;;;8.40;;
151;SDS011;68;48.792;9.164;2023-09-19T15:56:14;29.00;;;9.70;;
151;SDS011;68;48.792;9.164;2023-09-19T15:58:44;27.50;;;6.50;;
151;SDS011;68;48.792;9.164;2023-09-19T16:01:12;26.10;;;8.17;;
151;SDS011;68;48.792;9.164;2023-09-19T16:03:40;27.47;;;7.77;;
151;SDS011;68;48.792;9.164;2023-09-19T16:06:09;25.97;;;7.67;;
151;SDS011;68;48.792;9.164;2023-09-19T16:08:38;24.77;;;7.57;;
151;SDS011;68;48.792;9.164;2023-09-19T16:11:06;27.10;;;8.17;;
151;SDS011;68;48.792;9.164;2023-09-19T16:13:33;26.90;;;8.77;;
151;SDS011;68;48.792;9.164;2023-09-19T16:16:02;23.97;;;7.07;;
151;SDS011;68;48.792;9.164;2023-09-19T16:18:28;25.60;;;8.23;;
151;SDS011;68;48.792;9.164;2023-09-19T16:21:00;25.60;;;7.87;;